Time;durP1;ratioP1;P1;durP2;ratioP2;P2;SDS_P1;SDS_P2;PMS_P1;PMS_P2;Temp;Humidity;BMP_temperature;BMP_pressure;BME280_temperature;BME280_humidity;BME280_pressure;Samples;Min_cycle;Max_cycle;Signal;HPM_P1;HPM_P2
2021/12/19 00:17:10;;;;;;;;;;;;;;;4.38;77.51;100448.19;4977830;28;19933;-92
2021/12/19 00:19:43;;;;;;;;;;;;;;;4.29;77.40;100438.63;4979178;28;19932;-93
2021/12/19 00:22:16;;;;;;;;;;;;;;;4.32;77.56;100440.41;4978909;28;19926;-92
2021/12/19 00:24:57;;;;;;;;;;;;;;;4.31;77.98;100438.69;4980129;28;19933;-93
2021/12/19 00:27:34;;;;;;;;;;;;;;;4.39;78.15;100433.09;4984925;28;19933;-92
2021/12/19 00:30:08;;;;;;;;;;;;;;;4.43;77.97;100436.59;4971001;28;19950;-93
2021/12/19 00:32:41;;;;;;;;;;;;;;;4.36;77.85;100425.41;4987842;28;19933;-94
2021/12/19 00:35:12;;;;;;;;;;;;;;;4.40;77.77;100444.94;5024472;28;19933;-93
2021/12/19 00:37:52;;;;;;;;;;;;;;;4.54;78.12;100440.34;4994483;28;19926;-92
2021/12/19 00:40:28;;;;;;;;;;;;;;;4.59;77.94;100436.31;4996490;28;19957;-92
2021/12/19 00:43:10;;;;;;;;;;;;;;;4.64;77.79;100428.09;4991624;28;19932;-93
2021/12/19 00:45:49;;;;;;;;;;;;;;;4.63;77.53;100430.59;5012129;28;19926;-91
2021/12/19 00:48:34;;;;;;;;;;;;;;;4.67;77.61;100427.34;4948097;28;20008;-92
2021/12/19 00:51:22;;;;;;;;;;;;;;;4.68;77.59;100421.47;4981580;28;19973;-91
2021/12/19 00:53:57;;;;;;;;;;;;;;;4.66;77.73;100416.38;4980896;28;19926;-93
2021/12/19 00:56:32;;;;;;;;;;;;;;;4.71;77.43;100419.06;4987728;28;19926;-92
2021/12/19 00:59:06;;;;;;;;;;;;;;;4.75;77.46;100415.84;5022773;23;19926;-92
2021/12/19 01:01:37;;;;;;;;;;;;;;;4.81;77.29;100421.09;5017246;28;19972;-91
2021/12/19 01:04:12;;;;;;;;;;;;;;;4.85;77.32;100412.78;5017245;28;19980;-91
2021/12/19 01:06:45;;;;;;;;;;;;;;;4.89;77.18;100424.75;5016972;28;19937;-92
2021/12/19 01:09:19;;;;;;;;;;;;;;;4.84;77.08;100431.31;5016782;28;19925;-91
2021/12/19 01:11:49;;;;;;;;;;;;;;;4.80;77.38;100424.41;4999517;28;20386;-92
2021/12/19 01:14:22;;;;;;;;;;;;;;;4.78;77.07;100420.97;5016606;28;19955;-91
2021/12/19 01:16:53;;;;;;;;;;;;;;;4.74;77.49;100409.91;4999625;28;19976;-91
2021/12/19 01:19:27;;;;;;;;;;;;;;;4.76;77.48;100399.84;5016515;28;20374;-90
2021/12/19 01:22:02;;;;;;;;;;;;;;;4.77;77.53;100396.53;5016781;28;19964;-92
2021/12/19 01:24:35;;;;;;;;;;;;;;;4.75;77.08;100395.63;5016576;28;19953;-91
2021/12/19 01:27:09;;;;;;;;;;;;;;;4.85;77.70;100392.56;5016510;28;19925;-91
2021/12/19 01:29:51;;;;;;;;;;;;;;;4.85;77.39;100382.44;5016336;28;19925;-90
2021/12/19 01:32:30;;;;;;;;;;;;;;;4.84;77.14;100380.75;4999277;28;19949;-92
2021/12/19 01:38:02;;;;;;;;;;;;;;;4.77;77.37;100381.34;4956191;29;19930;-92
2021/12/19 01:40:37;;;;;;;;;;;;;;;4.82;77.18;100387.44;4956370;29;20002;-92
2021/12/19 01:43:30;;;;;;;;;;;;;;;4.81;77.34;100379.78;4957749;29;20025;-92
2021/12/19 01:46:48;;;;;;;;;;;;;;;4.86;77.45;100379.13;4956584;29;20471;-91
2021/12/19 01:49:50;;;;;;;;;;;;;;;4.80;77.38;100353.63;4954044;29;19927;-93
2021/12/19 01:56:09;;;;;;;;;;;;;;;4.73;77.69;100346.63;4934883;29;19934;-92
2021/12/19 01:58:46;;;;;;;;;;;;;;;4.63;77.78;100345.47;4955432;29;19926;-92
2021/12/19 02:01:37;;;;;;;;;;;;;;;4.58;77.71;100348.69;4940435;29;19927;-93
2021/12/19 02:08:26;;;;;;;;;;;;;;;4.85;77.90;100320.91;4948579;28;19926;-91
2021/12/19 02:11:31;;;;;;;;;;;;;;;4.86;77.77;100320.09;4993807;28;19926;-92
2021/12/19 02:15:06;;;;;;;;;;;;;;;4.99;77.74;100315.47;4983846;28;20037;-92
2021/12/19 02:22:21;;;;;;;;;;;;;;;4.88;77.85;100306.69;5052690;23;20331;-93
2021/12/19 02:25:38;;;;;;;;;;;;;;;4.87;77.88;100302.44;5015997;28;19925;-94
2021/12/19 02:40:22;;;;;;;;;;;;;;;4.96;77.74;100277.44;4996925;28;20390;-93
2021/12/19 02:49:19;;;;;;;;;;;;;;;5.21;77.14;100279.91;4999697;28;19926;-94
2021/12/19 02:51:57;;;;;;;;;;;;;;;5.18;77.47;100262.09;4982891;28;20438;-92
2021/12/19 02:55:01;;;;;;;;;;;;;;;5.22;77.42;100268.97;4981266;28;19933;-92
2021/12/19 02:58:03;;;;;;;;;;;;;;;5.30;77.20;100261.63;4994471;28;19926;-92
2021/12/19 03:03:30;;;;;;;;;;;;;;;5.37;76.98;100249.16;4977380;28;19930;-92
2021/12/19 03:09:38;;;;;;;;;;;;;;;5.11;76.80;100247.53;4978731;23;19926;-92
2021/12/19 03:12:57;;;;;;;;;;;;;;;5.21;77.30;100247.00;4995278;28;20290;-92
2021/12/19 03:22:25;;;;;;;;;;;;;;;5.16;77.16;100235.88;4899916;29;20036;-91
2021/12/19 03:32:21;;;;;;;;;;;;;;;5.26;76.98;100229.44;4886806;29;19927;-91
2021/12/19 03:35:07;;;;;;;;;;;;;;;5.29;77.01;100234.59;4959105;28;19926;-92
2021/12/19 03:41:13;;;;;;;;;;;;;;;5.32;76.85;100217.84;4984687;23;19961;-90
2021/12/19 03:44:38;;;;;;;;;;;;;;;5.26;76.89;100210.06;4964078;28;19935;-92
2021/12/19 03:47:12;;;;;;;;;;;;;;;5.38;77.04;100210.41;4961422;28;19969;-91
2021/12/19 03:49:55;;;;;;;;;;;;;;;5.39;76.94;100198.59;4978380;28;19932;-93
2021/12/19 03:52:50;;;;;;;;;;;;;;;5.40;76.66;100193.56;4977502;28;19933;-92
2021/12/19 03:56:44;;;;;;;;;;;;;;;5.28;76.58;100187.31;4991721;23;19926;-91
2021/12/19 03:59:47;;;;;;;;;;;;;;;5.35;77.03;100179.09;4999073;28;19933;-93
2021/12/19 04:03:23;;;;;;;;;;;;;;;5.25;77.03;100182.19;5373759;23;19947;-94
2021/12/19 04:06:09;;;;;;;;;;;;;;;5.38;77.05;100180.03;4984482;28;19972;-94
2021/12/19 04:09:05;;;;;;;;;;;;;;;5.48;77.04;100175.22;4979761;28;20016;-92
2021/12/19 04:11:55;;;;;;;;;;;;;;;5.45;76.67;100167.56;4976960;28;19926;-92
2021/12/19 04:14:30;;;;;;;;;;;;;;;5.48;76.89;100172.69;4979549;28;19926;-93
2021/12/19 04:17:11;;;;;;;;;;;;;;;5.42;76.76;100164.09;4979016;28;20430;-93
2021/12/19 04:19:57;;;;;;;;;;;;;;;5.60;76.37;100156.16;4945568;28;19965;-91
2021/12/19 04:23:04;;;;;;;;;;;;;;;5.54;76.44;100145.88;4979504;28;20376;-93
2021/12/19 04:26:25;;;;;;;;;;;;;;;5.63;76.03;100147.78;5467843;23;20983;-93
2021/12/19 04:29:12;;;;;;;;;;;;;;;5.67;76.18;100139.44;4997913;28;20001;-93
2021/12/19 04:31:56;;;;;;;;;;;;;;;5.79;76.33;100129.63;5021106;23;20356;-91
2021/12/19 04:34:39;;;;;;;;;;;;;;;5.86;75.68;100124.81;4981335;28;19976;-90
2021/12/19 04:53:50;;;;;;;;;;;;;;;6.11;75.08;100090.78;5004219;28;19948;-90
2021/12/19 04:57:10;;;;;;;;;;;;;;;6.14;74.63;100095.94;4997624;28;20398;-88
2021/12/19 05:00:03;;;;;;;;;;;;;;;6.16;74.87;100081.63;4980001;28;19980;-88
2021/12/19 05:02:49;;;;;;;;;;;;;;;6.25;74.82;100079.28;4964746;28;19933;-88
2021/12/19 05:16:31;;;;;;;;;;;;;;;5.77;74.67;100067.97;4996283;28;19932;-90
2021/12/19 05:19:43;;;;;;;;;;;;;;;5.87;74.95;100069.94;4980195;28;19936;-91
2021/12/19 05:22:19;;;;;;;;;;;;;;;5.80;75.69;100062.97;4980632;28;20283;-91
2021/12/19 05:25:14;;;;;;;;;;;;;;;5.81;75.69;100064.69;4980207;28;19930;-90
2021/12/19 05:27:58;;;;;;;;;;;;;;;5.76;75.68;100054.44;4964122;28;19926;-91
2021/12/19 05:30:37;;;;;;;;;;;;;;;5.62;75.99;100052.38;4995659;28;19952;-92
2021/12/19 05:33:08;;;;;;;;;;;;;;;5.57;76.08;100051.41;4996664;28;20020;-91
2021/12/19 05:45:11;;;;;;;;;;;;;;;5.35;77.18;100053.41;4920107;29;19967;-90
2021/12/19 05:47:02;;;;;;;;;;;;;;;5.27;77.57;100052.38;4983785;28;19969;-88
2021/12/19 05:53:35;;;;;;;;;;;;;;;5.10;78.15;100040.06;4976965;28;20056;-93
2021/12/19 05:56:16;;;;;;;;;;;;;;;5.13;78.37;100033.44;4996346;28;19926;-93
2021/12/19 05:59:04;;;;;;;;;;;;;;;5.23;78.67;100035.38;4978904;28;20299;-92
2021/12/19 06:02:21;;;;;;;;;;;;;;;5.30;78.74;100039.78;4982555;28;19926;-91
2021/12/19 06:08:17;;;;;;;;;;;;;;;5.27;78.74;100027.06;4995230;28;19945;-92
2021/12/19 06:11:20;;;;;;;;;;;;;;;5.45;78.74;100013.16;4980245;28;19926;-91
2021/12/19 06:14:33;;;;;;;;;;;;;;;5.58;78.88;100015.16;5010627;23;19926;-91
2021/12/19 06:17:12;;;;;;;;;;;;;;;5.71;78.46;100012.94;4996104;28;19926;-91
2021/12/19 06:19:56;;;;;;;;;;;;;;;5.75;78.24;100013.91;5002024;23;19930;-90
2021/12/19 06:22:40;;;;;;;;;;;;;;;5.87;77.71;99999.03;4977201;28;19929;-91
2021/12/19 06:25:21;;;;;;;;;;;;;;;5.85;77.59;100000.66;4993459;23;20003;-94
2021/12/19 06:28:17;;;;;;;;;;;;;;;5.95;77.69;99982.34;4980504;28;20017;-94
2021/12/19 06:30:50;;;;;;;;;;;;;;;5.92;77.10;99987.31;4979940;28;19930;-93
2021/12/19 06:33:24;;;;;;;;;;;;;;;5.97;77.09;99985.75;4996360;28;19929;-94
2021/12/19 06:36:09;;;;;;;;;;;;;;;6.00;77.05;99975.66;5012284;28;19926;-91
2021/12/19 06:39:05;;;;;;;;;;;;;;;6.01;76.81;99978.25;4996015;28;19958;-91
2021/12/19 06:42:34;;;;;;;;;;;;;;;5.96;76.65;99976.44;5274731;23;19981;-90
2021/12/19 06:45:37;;;;;;;;;;;;;;;;;;;;;
2021/12/19 06:49:17;;;;;;;;;;;;;;;6.00;76.41;99978.19;4935731;29;20329;-92
2021/12/19 06:52:18;;;;;;;;;;;;;;;6.07;76.75;99967.38;4939425;29;19927;-90
2021/12/19 06:54:51;;;;;;;;;;;;;;;6.08;76.59;99971.63;4936329;29;19998;-89
2021/12/19 06:57:21;;;;;;;;;;;;;;;6.08;76.62;99974.16;4936843;29;19927;-90
2021/12/19 07:00:08;;;;;;;;;;;;;;;6.09;76.66;99960.69;4920232;29;19927;-92
2021/12/19 07:02:41;;;;;;;;;;;;;;;6.09;76.82;99966.59;4908309;29;20455;-90
2021/12/19 07:05:33;;;;;;;;;;;;;;;6.11;76.85;99953.09;4936374;29;19927;-91
2021/12/19 07:08:18;;;;;;;;;;;;;;;6.05;76.88;99948.75;4949728;29;19927;-87
2021/12/19 07:11:11;;;;;;;;;;;;;;;6.09;77.02;99961.50;4949406;29;19962;-88
2021/12/19 07:13:43;;;;;;;;;;;;;;;6.07;76.91;99959.78;4992989;28;19926;-91
2021/12/19 07:16:15;;;;;;;;;;;;;;;6.13;76.93;99965.00;4979332;28;19960;-87
2021/12/19 07:18:48;;;;;;;;;;;;;;;6.15;76.78;99963.34;4995700;28;19926;-90
2021/12/19 07:21:28;;;;;;;;;;;;;;;6.13;77.15;99962.47;4995303;28;19965;-89
2021/12/19 07:24:03;;;;;;;;;;;;;;;6.15;76.90;99953.19;4995377;28;19933;-93
2021/12/19 07:26:36;;;;;;;;;;;;;;;6.19;76.79;99956.66;4979837;28;20029;-87
2021/12/19 07:29:08;;;;;;;;;;;;;;;6.19;77.03;99944.84;4995500;28;19926;-91
2021/12/19 07:31:38;;;;;;;;;;;;;;;6.23;76.97;99939.03;4978149;28;19926;-89
2021/12/19 07:34:12;;;;;;;;;;;;;;;6.23;76.76;99939.03;4978220;28;19926;-87
2021/12/19 07:36:51;;;;;;;;;;;;;;;6.21;76.93;99935.59;4993766;28;19926;-87
2021/12/19 07:39:37;;;;;;;;;;;;;;;6.31;77.00;99932.41;4954178;28;20368;-89
2021/12/19 07:42:10;;;;;;;;;;;;;;;6.36;76.52;99925.75;4922721;29;20024;-87
2021/12/19 07:44:43;;;;;;;;;;;;;;;6.37;76.55;99927.47;4941586;29;19931;-90
2021/12/19 07:47:13;;;;;;;;;;;;;;;6.37;76.12;99921.56;4955627;28;19934;-90
2021/12/19 07:49:48;;;;;;;;;;;;;;;6.41;76.51;99934.31;4938709;29;20343;-87
2021/12/19 07:52:21;;;;;;;;;;;;;;;6.37;76.62;99932.56;4941180;29;19938;-91
2021/12/19 07:54:54;;;;;;;;;;;;;;;6.40;76.56;99931.75;4940458;29;20438;-88
2021/12/19 07:57:23;;;;;;;;;;;;;;;6.40;76.14;99927.56;4954936;28;19966;-84
2021/12/19 07:59:57;;;;;;;;;;;;;;;6.42;76.23;99930.97;4954542;28;19926;-91
2021/12/19 08:02:27;;;;;;;;;;;;;;;6.49;76.39;99931.94;4953746;29;20020;-88
2021/12/19 08:04:59;;;;;;;;;;;;;;;6.45;75.36;99925.09;4954061;28;20021;-87
2021/12/19 08:07:31;;;;;;;;;;;;;;;6.45;76.32;99925.97;4953700;29;19926;-87
2021/12/19 08:10:14;;;;;;;;;;;;;;;6.43;76.08;99925.06;4966146;28;19969;-89
2021/12/19 08:12:43;;;;;;;;;;;;;;;6.42;76.23;99915.75;4973820;28;20303;-89
2021/12/19 08:15:14;;;;;;;;;;;;;;;6.24;75.90;99904.41;4974326;28;19926;-89
2021/12/19 08:18:23;;;;;;;;;;;;;;;6.17;76.48;99903.41;5000959;28;19927;-89
2021/12/19 08:20:53;;;;;;;;;;;;;;;6.18;76.93;99884.84;4943613;28;19926;-90
2021/12/19 08:23:31;;;;;;;;;;;;;;;6.17;76.85;99883.13;4979038;28;19926;-90
2021/12/19 08:26:10;;;;;;;;;;;;;;;6.11;76.69;99884.69;4980578;28;19932;-90
2021/12/19 08:28:43;;;;;;;;;;;;;;;5.95;77.34;99884.38;4978924;28;19926;-91
2021/12/19 08:31:13;;;;;;;;;;;;;;;6.01;77.66;99881.13;4978692;28;19926;-90
2021/12/19 08:33:45;;;;;;;;;;;;;;;6.16;77.58;99880.59;4978598;28;19933;-93
2021/12/19 08:36:16;;;;;;;;;;;;;;;6.25;77.85;99868.94;4977913;28;19933;-91
2021/12/19 08:38:51;;;;;;;;;;;;;;;6.31;77.25;99866.50;4975630;28;19926;-88
2021/12/19 08:41:33;;;;;;;;;;;;;;;6.33;76.99;99869.97;4976148;28;19926;-90
2021/12/19 08:44:02;;;;;;;;;;;;;;;6.38;77.07;99873.41;4977966;28;19929;-88
2021/12/19 08:46:35;;;;;;;;;;;;;;;6.42;76.90;99869.25;4978172;28;19930;-88
2021/12/19 08:49:08;;;;;;;;;;;;;;;6.47;77.04;99866.00;4977901;28;19933;-91
2021/12/19 08:51:40;;;;;;;;;;;;;;;6.50;76.95;99858.44;4978880;28;19933;-92
2021/12/19 08:55:15;;;;;;;;;;;;;;;6.53;76.72;99853.41;5018534;23;19933;-88
2021/12/19 08:57:47;;;;;;;;;;;;;;;6.51;76.63;99850.00;4981108;28;19929;-90
2021/12/19 09:00:18;;;;;;;;;;;;;;;6.53;76.52;99838.22;4997272;28;19926;-87
2021/12/19 09:02:55;;;;;;;;;;;;;;;6.63;76.37;99824.00;4998368;28;19933;-83
2021/12/19 09:05:25;;;;;;;;;;;;;;;6.68;76.05;99822.41;4998417;28;19930;-90
2021/12/19 09:07:54;;;;;;;;;;;;;;;6.73;75.99;99816.59;4998240;28;19934;-87
2021/12/19 09:10:25;;;;;;;;;;;;;;;6.81;75.82;99818.41;4996601;28;19929;-88
2021/12/19 09:12:55;;;;;;;;;;;;;;;6.85;75.82;99815.06;4997007;28;19932;-90
2021/12/19 09:15:33;;;;;;;;;;;;;;;6.92;74.57;99816.88;4997365;28;19930;-91
2021/12/19 09:18:03;;;;;;;;;;;;;;;6.98;74.90;99819.53;4997512;28;19988;-91
2021/12/19 09:20:33;;;;;;;;;;;;;;;7.06;75.37;99810.34;4980029;28;19926;-88
2021/12/19 09:23:03;;;;;;;;;;;;;;;7.04;74.51;99807.78;4979923;28;20016;-86
2021/12/19 09:25:35;;;;;;;;;;;;;;;7.09;73.87;99810.38;4979994;28;20344;-86
2021/12/19 09:28:05;;;;;;;;;;;;;;;7.15;74.14;99815.56;4996124;28;19929;-84
2021/12/19 09:30:35;;;;;;;;;;;;;;;7.15;73.43;99810.50;4996282;28;20024;-87
2021/12/19 09:33:05;;;;;;;;;;;;;;;7.14;73.17;99809.63;4995726;28;19936;-86
2021/12/19 09:35:35;;;;;;;;;;;;;;;7.17;73.49;99808.81;4996503;28;20020;-87
2021/12/19 09:41:00;;;;;;;;;;;;;;;7.10;72.84;99789.28;4997689;28;19930;-88
2021/12/19 09:46:12;;;;;;;;;;;;;;;6.96;73.44;99780.59;4997622;28;19961;-90
2021/12/19 09:48:42;;;;;;;;;;;;;;;6.89;74.09;99786.38;4999457;28;19925;-90
2021/12/19 09:51:20;;;;;;;;;;;;;;;7.02;73.35;99793.38;4997192;28;20004;-87
2021/12/19 09:53:50;;;;;;;;;;;;;;;7.13;73.09;99787.63;4996830;28;19925;-87
2021/12/19 09:56:22;;;;;;;;;;;;;;;7.12;73.12;99777.44;4996603;28;19932;-87
2021/12/19 09:58:53;;;;;;;;;;;;;;;7.11;72.44;99778.28;4997646;28;20008;-86
2021/12/19 10:01:22;;;;;;;;;;;;;;;7.22;71.80;99781.84;4996013;28;19932;-88
2021/12/19 10:03:52;;;;;;;;;;;;;;;7.20;71.31;99770.78;4978492;28;19972;-87
2021/12/19 10:06:22;;;;;;;;;;;;;;;7.23;71.49;99775.91;4999594;28;19926;-89
2021/12/19 10:09:08;;;;;;;;;;;;;;;7.23;71.73;99778.44;4979374;28;19933;-87
2021/12/19 10:11:57;;;;;;;;;;;;;;;7.27;71.25;99770.06;4996553;28;20012;-85
2021/12/19 10:14:28;;;;;;;;;;;;;;;7.30;71.01;99765.00;4997344;28;19957;-87
2021/12/19 10:16:59;;;;;;;;;;;;;;;7.35;70.66;99768.47;4962810;28;19932;-85
2021/12/19 10:19:39;;;;;;;;;;;;;;;7.39;70.88;99765.13;4979064;28;19926;-87
2021/12/19 10:22:08;;;;;;;;;;;;;;;7.39;70.43;99762.59;4978040;28;19936;-86
2021/12/19 10:24:37;;;;;;;;;;;;;;;7.38;70.41;99753.28;4977915;28;19930;-85
2021/12/19 10:27:09;;;;;;;;;;;;;;;7.47;69.80;99762.69;4996226;28;19926;-87
2021/12/19 10:29:45;;;;;;;;;;;;;;;7.50;69.77;99748.34;4997466;28;19926;-83
2021/12/19 10:32:15;;;;;;;;;;;;;;;7.50;69.14;99747.50;4996550;28;19933;-90
2021/12/19 10:34:46;;;;;;;;;;;;;;;7.45;69.35;99744.91;4995335;28;19926;-84
2021/12/19 10:37:31;;;;;;;;;;;;;;;7.44;69.06;99744.03;4996599;28;19932;-83
2021/12/19 10:40:02;;;;;;;;;;;;;;;7.40;69.33;99741.44;4979340;28;20033;-83
2021/12/19 10:42:43;;;;;;;;;;;;;;;7.35;69.42;99733.78;4979412;28;19965;-84
2021/12/19 10:47:52;;;;;;;;;;;;;;;7.36;69.08;99740.56;4995940;28;19926;-84
2021/12/19 10:50:21;;;;;;;;;;;;;;;7.37;69.20;99733.78;4962677;28;19973;-85
2021/12/19 10:52:50;;;;;;;;;;;;;;;7.43;69.28;99737.28;4997833;28;19930;-81
2021/12/19 10:55:20;;;;;;;;;;;;;;;7.41;69.07;99733.00;4997547;28;20368;-84
2021/12/19 10:57:56;;;;;;;;;;;;;;;7.39;69.29;99727.03;4995083;28;20358;-83
2021/12/19 11:03:41;;;;;;;;;;;;;;;7.32;68.74;99722.72;4979367;28;19933;-85
2021/12/19 11:06:22;;;;;;;;;;;;;;;7.31;69.10;99706.66;4994842;28;21370;-89
2021/12/19 11:09:01;;;;;;;;;;;;;;;7.35;68.99;99702.47;4980985;28;20024;-88
2021/12/19 11:11:52;;;;;;;;;;;;;;;7.28;69.16;99704.06;4980283;28;20012;-87
2021/12/19 11:14:28;;;;;;;;;;;;;;;7.29;69.49;99702.41;4987725;28;19925;-87
2021/12/19 11:16:59;;;;;;;;;;;;;;;7.30;69.18;99693.94;4978869;28;19987;-89
2021/12/19 11:19:35;;;;;;;;;;;;;;;7.32;69.09;99688.03;4995492;28;19981;-84
2021/12/19 11:22:24;;;;;;;;;;;;;;;7.46;68.61;99690.75;4979232;28;19961;-87
2021/12/19 11:25:00;;;;;;;;;;;;;;;7.42;68.43;99678.84;4979317;28;19937;-85
2021/12/19 11:27:34;;;;;;;;;;;;;;;7.41;69.07;99682.25;4995525;28;19926;-85
2021/12/19 11:30:08;;;;;;;;;;;;;;;7.48;68.59;99683.16;4995931;28;20063;-88
2021/12/19 11:32:45;;;;;;;;;;;;;;;7.54;68.64;99673.91;4947483;28;19933;-86
2021/12/19 11:35:25;;;;;;;;;;;;;;;7.55;69.21;99675.63;4978008;28;20360;-87
2021/12/19 11:37:58;;;;;;;;;;;;;;;7.54;69.87;99668.81;4996520;28;19925;-89
2021/12/19 11:40:42;;;;;;;;;;;;;;;7.58;69.52;99670.59;4999409;28;20008;-89
2021/12/19 11:43:19;;;;;;;;;;;;;;;7.55;69.81;99659.53;4998815;28;19926;-88
2021/12/19 11:46:01;;;;;;;;;;;;;;;7.60;70.17;99647.75;4999107;28;19925;-86
2021/12/19 11:48:35;;;;;;;;;;;;;;;7.59;70.12;99646.88;4977527;28;20028;-87
2021/12/19 11:51:07;;;;;;;;;;;;;;;7.61;69.91;99645.19;4997526;28;19932;-88
2021/12/19 11:53:41;;;;;;;;;;;;;;;7.54;71.22;99643.44;4981512;28;19937;-88
2021/12/19 11:56:12;;;;;;;;;;;;;;;7.49;71.12;99629.84;4974208;28;20029;-81
2021/12/19 11:58:48;;;;;;;;;;;;;;;7.40;71.15;99629.75;4998606;28;19933;-82
2021/12/19 12:01:24;;;;;;;;;;;;;;;7.36;71.03;99628.00;4999442;28;19932;-87
2021/12/19 12:03:59;;;;;;;;;;;;;;;7.39;71.31;99610.25;4995769;28;19932;-86
2021/12/19 12:06:33;;;;;;;;;;;;;;;7.41;71.91;99621.31;4980651;28;19926;-87
2021/12/19 12:09:14;;;;;;;;;;;;;;;7.39;71.78;99612.78;4998327;28;19977;-84
2021/12/19 12:12:07;;;;;;;;;;;;;;;7.43;72.03;99609.47;4978872;28;19926;-84
2021/12/19 12:14:40;;;;;;;;;;;;;;;7.49;71.65;99604.44;4970038;28;20380;-92
2021/12/19 12:17:20;;;;;;;;;;;;;;;7.48;71.76;99600.22;4980368;28;19927;-84
2021/12/19 12:19:50;;;;;;;;;;;;;;;7.43;71.77;99600.19;4981923;28;19957;-83
2021/12/19 12:22:34;;;;;;;;;;;;;;;7.40;71.66;99600.13;4979641;28;19982;-83
2021/12/19 12:25:11;;;;;;;;;;;;;;;7.40;72.09;99594.19;4978222;28;19926;-87
2021/12/19 12:27:41;;;;;;;;;;;;;;;7.36;71.66;99598.41;4978722;28;19933;-87
2021/12/19 12:30:16;;;;;;;;;;;;;;;7.29;71.63;99595.78;4977096;28;19973;-88
2021/12/19 12:32:47;;;;;;;;;;;;;;;7.35;71.32;99596.69;4978315;28;20022;-87
2021/12/19 12:35:20;;;;;;;;;;;;;;;7.32;71.34;99590.72;4960572;28;19926;-86
2021/12/19 12:37:51;;;;;;;;;;;;;;;7.27;71.24;99572.06;4978264;28;20388;-84
2021/12/19 12:40:29;;;;;;;;;;;;;;;7.23;71.70;99572.84;4978338;28;19926;-85
2021/12/19 12:43:10;;;;;;;;;;;;;;;7.21;71.52;99572.00;4961225;28;20021;-86
2021/12/19 12:45:51;;;;;;;;;;;;;;;7.21;71.19;99565.25;4960166;28;20025;-86
2021/12/19 12:48:31;;;;;;;;;;;;;;;7.27;70.74;99559.38;4978584;28;19949;-85
2021/12/19 12:51:11;;;;;;;;;;;;;;;7.26;70.18;99550.91;4977622;28;19933;-86
2021/12/19 12:53:45;;;;;;;;;;;;;;;7.28;70.19;99533.16;4976655;28;20012;-87
2021/12/19 12:56:21;;;;;;;;;;;;;;;7.28;70.47;99533.16;4976540;28;19926;-87
2021/12/19 12:58:53;;;;;;;;;;;;;;;7.31;70.47;99528.09;4961718;28;19926;-88
2021/12/19 13:01:26;;;;;;;;;;;;;;;7.26;69.42;99532.28;4985192;28;19972;-87
2021/12/19 13:03:57;;;;;;;;;;;;;;;7.28;69.68;99523.00;4978654;28;20403;-86
2021/12/19 13:06:37;;;;;;;;;;;;;;;7.30;69.90;99529.78;4976298;28;19926;-89
2021/12/19 13:09:10;;;;;;;;;;;;;;;7.31;69.77;99533.19;4961430;28;20017;-86
2021/12/19 13:11:44;;;;;;;;;;;;;;;7.31;69.67;99528.09;4985419;28;20346;-88
2021/12/19 13:14:14;;;;;;;;;;;;;;;7.36;69.53;99524.78;4980794;28;19933;-90
2021/12/19 13:16:46;;;;;;;;;;;;;;;7.35;69.48;99537.44;4980674;28;19933;-91
2021/12/19 13:19:26;;;;;;;;;;;;;;;7.34;70.31;99523.06;4982764;28;20372;-91
2021/12/19 13:24:51;;;;;;;;;;;;;;;7.32;69.89;99519.63;4995629;23;20445;-90
2021/12/19 13:27:25;;;;;;;;;;;;;;;7.32;69.84;99532.34;4998735;28;19932;-91
2021/12/19 13:30:06;;;;;;;;;;;;;;;7.28;69.69;99523.84;4998339;28;19926;-93
2021/12/19 13:32:58;;;;;;;;;;;;;;;7.26;69.44;99515.38;4983342;28;19926;-92
2021/12/19 13:35:56;;;;;;;;;;;;;;;7.27;69.62;99534.00;4998352;28;20001;-91
2021/12/19 13:38:41;;;;;;;;;;;;;;;7.20;68.87;99532.22;5002145;28;20376;-95
2021/12/19 13:41:15;;;;;;;;;;;;;;;7.23;69.43;99519.56;4984992;28;19930;-92
2021/12/19 13:43:46;;;;;;;;;;;;;;;7.22;69.38;99528.03;5001121;28;19926;-92
2021/12/19 13:46:16;;;;;;;;;;;;;;;7.26;69.10;99524.69;4983249;28;20394;-91
2021/12/19 13:48:51;;;;;;;;;;;;;;;7.33;69.10;99518.81;4998860;28;19926;-89
2021/12/19 14:02:10;;;;;;;;;;;;;;;7.21;69.25;99508.53;5002849;23;19961;-85
2021/12/19 14:04:43;;;;;;;;;;;;;;;7.18;68.93;99500.91;4995529;28;19933;-87
2021/12/19 14:07:15;;;;;;;;;;;;;;;7.17;69.27;99502.59;4995555;28;19933;-87
2021/12/19 14:10:02;;;;;;;;;;;;;;;7.18;68.42;99503.44;4994640;28;19972;-89
2021/12/19 14:12:53;;;;;;;;;;;;;;;7.18;68.69;99493.28;4994212;28;19925;-87
2021/12/19 14:15:25;;;;;;;;;;;;;;;7.24;68.70;99495.91;4994722;28;19969;-86
2021/12/19 14:17:55;;;;;;;;;;;;;;;7.23;68.50;99495.03;5009550;28;19930;-86
2021/12/19 14:20:34;;;;;;;;;;;;;;;7.26;68.76;99490.00;4995413;28;19972;-88
2021/12/19 14:23:17;;;;;;;;;;;;;;;7.23;68.70;99489.97;4995350;28;20020;-87
2021/12/19 14:25:46;;;;;;;;;;;;;;;7.22;68.48;99487.41;4995186;28;19926;-86
2021/12/19 14:31:34;;;;;;;;;;;;;;;7.23;68.78;99487.44;4994439;28;20375;-90
2021/12/19 14:34:23;;;;;;;;;;;;;;;7.22;68.40;99477.28;5005111;23;20012;-90
2021/12/19 14:41:20;;;;;;;;;;;;;;;7.26;68.23;99479.00;4933142;29;19982;-86
2021/12/19 14:43:52;;;;;;;;;;;;;;;7.25;67.94;99474.72;4937144;29;19955;-86
2021/12/19 14:46:26;;;;;;;;;;;;;;;7.25;68.49;99473.06;4951966;29;19934;-85
2021/12/19 14:49:11;;;;;;;;;;;;;;;7.26;68.60;99481.53;4937420;29;19938;-86
2021/12/19 14:51:41;;;;;;;;;;;;;;;7.17;67.87;99468.75;4937341;29;19927;-85
2021/12/19 14:54:13;;;;;;;;;;;;;;;7.20;67.98;99468.75;4920442;29;20381;-85
2021/12/19 14:56:47;;;;;;;;;;;;;;;7.20;67.90;99466.22;4937286;29;19927;-85
2021/12/19 14:59:21;;;;;;;;;;;;;;;7.17;68.10;99458.59;4937155;29;20389;-85
2021/12/19 15:01:54;;;;;;;;;;;;;;;7.18;67.59;99460.28;4919794;29;19991;-86
2021/12/19 15:04:43;;;;;;;;;;;;;;;7.19;67.86;99454.38;4900180;29;19927;-85
2021/12/19 15:07:22;;;;;;;;;;;;;;;7.15;68.35;99455.22;4916027;29;19955;-84
2021/12/19 15:09:52;;;;;;;;;;;;;;;7.18;67.95;99455.22;4915758;29;19975;-85
2021/12/19 15:12:26;;;;;;;;;;;;;;;7.23;68.20;99453.56;4916146;29;19927;-85
2021/12/19 15:14:58;;;;;;;;;;;;;;;7.17;68.01;99454.38;4915718;29;19974;-85
2021/12/19 15:17:30;;;;;;;;;;;;;;;7.08;68.33;99456.00;4915793;29;19948;-86
2021/12/19 15:20:03;;;;;;;;;;;;;;;6.97;69.63;99447.41;4932077;29;19928;-85
2021/12/19 15:22:34;;;;;;;;;;;;;;;7.02;69.66;99445.78;4907239;29;19927;-85
2021/12/19 15:25:04;;;;;;;;;;;;;;;7.09;69.17;99440.78;4936819;29;19942;-85
2021/12/19 15:27:38;;;;;;;;;;;;;;;7.07;69.75;99456.81;4936571;29;19927;-85
2021/12/19 15:30:12;;;;;;;;;;;;;;;7.01;69.50;99442.38;4939680;29;19927;-85
2021/12/19 15:32:51;;;;;;;;;;;;;;;7.02;70.01;99438.16;4924207;29;19926;-87
2021/12/19 15:35:53;;;;;;;;;;;;;;;6.96;70.18;99433.88;4918992;29;19927;-85
2021/12/19 15:38:30;;;;;;;;;;;;;;;6.91;70.52;99434.69;4920736;29;19935;-86
2021/12/19 15:41:18;;;;;;;;;;;;;;;6.82;70.44;99432.03;4920296;29;20017;-86
2021/12/19 15:43:58;;;;;;;;;;;;;;;6.82;70.58;99432.03;4921604;29;20371;-85
2021/12/19 15:46:35;;;;;;;;;;;;;;;6.84;71.26;99422.78;4921190;29;19979;-85
2021/12/19 15:49:08;;;;;;;;;;;;;;;6.86;71.29;99436.31;4921950;29;19928;-86
2021/12/19 15:52:14;;;;;;;;;;;;;;;;;;;;;
2021/12/19 15:54:51;;;;;;;;;;;;;;;6.94;71.48;99430.47;4935334;29;19931;-86
2021/12/19 15:57:21;;;;;;;;;;;;;;;6.91;71.85;99434.69;4922634;29;19953;-84
2021/12/19 15:59:57;;;;;;;;;;;;;;;6.88;71.74;99432.97;4907036;29;19938;-85
2021/12/19 16:02:26;;;;;;;;;;;;;;;6.86;71.40;99427.03;4922759;29;19963;-91
2021/12/19 16:05:00;;;;;;;;;;;;;;;6.86;72.18;99431.25;4922654;29;20420;-91
2021/12/19 16:07:33;;;;;;;;;;;;;;;6.85;72.34;99429.53;4923892;29;19973;-90
2021/12/19 16:10:12;;;;;;;;;;;;;;;6.77;72.45;99423.56;4902848;29;19927;-89
2021/12/19 16:16:39;;;;;;;;;;;;;;;6.74;73.14;99430.25;4905933;29;20393;-85
2021/12/19 16:19:09;;;;;;;;;;;;;;;6.69;73.25;99423.47;4999143;23;19972;-88
2021/12/19 16:21:47;;;;;;;;;;;;;;;6.71;73.92;99430.25;5034357;28;19932;-88
2021/12/19 16:24:26;;;;;;;;;;;;;;;6.70;74.07;99430.22;5004314;28;20351;-86
2021/12/19 16:27:06;;;;;;;;;;;;;;;6.57;74.24;99429.25;5037806;28;19925;-88
2021/12/19 16:29:37;;;;;;;;;;;;;;;6.53;74.43;99424.97;5032833;28;20032;-88
2021/12/19 16:32:10;;;;;;;;;;;;;;;6.55;75.32;99425.00;5004850;28;19956;-88
2021/12/19 16:34:45;;;;;;;;;;;;;;;6.62;75.25;99421.69;5020905;28;20024;-85